sensor_id;sensor_type;location;lat;lon;timestamp;P1;durP1;ratioP1;P2;durP2;ratioP2
71127;SDS011;59249;59.736;30.568;2024-01-30T15:22:02;30.65;;;12.05;;
71127;SDS011;59249;59.736;30.568;2024-01-30T15:24:31;34.60;;;13.23;;
71127;SDS011;59249;59.736;30.568;2024-01-30T15:27:01;29.37;;;12.13;;
71127;SDS011;59249;59.736;30.568;2024-01-30T15:29:30;27.20;;;10.80;;
71127;SDS011;59249;59.736;30.568;2024-01-30T15:32:00;31.55;;;11.35;;
71127;SDS011;59249;59.736;30.568;2024-01-30T15:34:32;26.27;;;10.88;;
71127;SDS011;59249;59.736;30.568;2024-01-30T15:37:04;26.10;;;10.48;;
71127;SDS011;59249;59.736;30.568;2024-01-30T15:39:33;32.50;;;9.97;;
71127;SDS011;59249;59.736;30.568;2024-01-30T15:42:04;34.97;;;12.30;;
71127;SDS011;59249;59.736;30.568;2024-01-30T15:44:34;32.13;;;11.82;;
71127;SDS011;59249;59.736;30.568;2024-01-30T15:47:06;29.40;;;11.43;;
71127;SDS011;59249;59.736;30.568;2024-01-30T15:49:39;24.55;;;11.30;;
71127;SDS011;59249;59.736;30.568;2024-01-30T15:52:10;31.23;;;11.07;;
71127;SDS011;59249;59.736;30.568;2024-01-30T15:54:41;32.75;;;11.27;;
71127;SDS011;59249;59.736;30.568;2024-01-30T15:57:11;31.05;;;11.30;;
71127;SDS011;59249;59.736;30.568;2024-01-30T15:59:40;30.25;;;11.95;;
71127;SDS011;59249;59.736;30.568;2024-01-30T16:02:10;31.55;;;11.00;;
71127;SDS011;59249;59.736;30.568;2024-01-30T16:04:41;34.60;;;12.43;;
71127;SDS011;59249;59.736;30.568;2024-01-30T16:07:17;36.97;;;12.57;;
71127;SDS011;59249;59.736;30.568;2024-01-30T16:10:05;35.38;;;13.38;;
71127;SDS011;59249;59.736;30.568;2024-01-30T16:12:38;35.45;;;12.63;;
71127;SDS011;59249;59.736;30.568;2024-01-30T16:15:12;36.13;;;13.50;;
71127;SDS011;59249;59.736;30.568;2024-01-30T16:17:44;38.63;;;11.67;;
71127;SDS011;59249;59.736;30.568;2024-01-30T16:20:16;37.58;;;13.20;;
71127;SDS011;59249;59.736;30.568;2024-01-30T16:22:47;33.90;;;12.63;;
71127;SDS011;59249;59.736;30.568;2024-01-30T16:25:21;34.92;;;13.82;;
71127;SDS011;59249;59.736;30.568;2024-01-30T16:27:50;37.60;;;14.63;;
71127;SDS011;59249;59.736;30.568;2024-01-30T16:30:22;35.67;;;13.07;;
71127;SDS011;59249;59.736;30.568;2024-01-30T16:33:11;35.10;;;13.23;;
71127;SDS011;59249;59.736;30.568;2024-01-30T16:35:40;38.05;;;12.00;;
71127;SDS011;59249;59.736;30.568;2024-01-30T16:38:14;35.35;;;12.57;;
71127;SDS011;59249;59.736;30.568;2024-01-30T16:40:44;41.95;;;13.57;;
71127;SDS011;59249;59.736;30.568;2024-01-30T16:43:13;38.67;;;14.20;;
71127;SDS011;59249;59.736;30.568;2024-01-30T16:45:44;34.25;;;13.48;;
71127;SDS011;59249;59.736;30.568;2024-01-30T16:48:16;38.83;;;12.65;;
71127;SDS011;59249;59.736;30.568;2024-01-30T16:51:06;39.97;;;14.13;;
71127;SDS011;59249;59.736;30.568;2024-01-30T16:53:58;33.90;;;13.60;;
71127;SDS011;59249;59.736;30.568;2024-01-30T16:56:47;34.00;;;13.07;;
71127;SDS011;59249;59.736;30.568;2024-01-30T16:59:16;35.05;;;13.02;;
71127;SDS011;59249;59.736;30.568;2024-01-30T17:01:46;29.83;;;11.38;;
71127;SDS011;59249;59.736;30.568;2024-01-30T17:04:16;32.45;;;11.40;;
71127;SDS011;59249;59.736;30.568;2024-01-30T17:06:49;26.13;;;10.20;;
71127;SDS011;59249;59.736;30.568;2024-01-30T17:09:20;28.13;;;10.07;;
71127;SDS011;59249;59.736;30.568;2024-01-30T17:11:49;26.33;;;9.45;;
71127;SDS011;59249;59.736;30.568;2024-01-30T17:14:19;24.63;;;8.15;;
71127;SDS011;59249;59.736;30.568;2024-01-30T17:16:49;25.83;;;7.78;;
71127;SDS011;59249;59.736;30.568;2024-01-30T17:19:31;28.27;;;9.45;;
71127;SDS011;59249;59.736;30.568;2024-01-30T17:22:22;25.33;;;8.63;;
71127;SDS011;59249;59.736;30.568;2024-01-30T17:25:13;27.80;;;8.25;;
71127;SDS011;59249;59.736;30.568;2024-01-30T17:27:43;30.80;;;8.95;;
71127;SDS011;59249;59.736;30.568;2024-01-30T17:30:19;22.67;;;7.07;;
71127;SDS011;59249;59.736;30.568;2024-01-30T17:33:11;21.58;;;8.65;;
71127;SDS011;59249;59.736;30.568;2024-01-30T17:35:50;29.53;;;10.00;;
71127;SDS011;59249;59.736;30.568;2024-01-30T17:38:20;26.98;;;8.25;;
71127;SDS011;59249;59.736;30.568;2024-01-30T17:40:50;18.77;;;7.20;;
71127;SDS011;59249;59.736;30.568;2024-01-30T17:43:35;21.27;;;7.97;;
71127;SDS011;59249;59.736;30.568;2024-01-30T17:46:04;20.20;;;7.50;;
71127;SDS011;59249;59.736;30.568;2024-01-30T17:48:33;24.93;;;7.27;;
71127;SDS011;59249;59.736;30.568;2024-01-30T17:51:04;26.95;;;8.25;;
71127;SDS011;59249;59.736;30.568;2024-01-30T17:53:34;36.95;;;9.80;;
71127;SDS011;59249;59.736;30.568;2024-01-30T17:56:24;31.65;;;8.13;;
71127;SDS011;59249;59.736;30.568;2024-01-30T17:58:56;32.20;;;8.98;;
71127;SDS011;59249;59.736;30.568;2024-01-30T18:01:25;34.87;;;9.97;;
71127;SDS011;59249;59.736;30.568;2024-01-30T18:04:17;25.60;;;8.00;;
71127;SDS011;59249;59.736;30.568;2024-01-30T18:06:50;32.05;;;8.93;;
71127;SDS011;59249;59.736;30.568;2024-01-30T18:09:21;36.05;;;8.52;;
71127;SDS011;59249;59.736;30.568;2024-01-30T18:11:53;46.08;;;9.55;;
71127;SDS011;59249;59.736;30.568;2024-01-30T18:14:41;56.90;;;10.50;;
71127;SDS011;59249;59.736;30.568;2024-01-30T18:17:11;39.70;;;9.07;;
71127;SDS011;59249;59.736;30.568;2024-01-30T18:19:41;41.83;;;9.32;;
71127;SDS011;59249;59.736;30.568;2024-01-30T18:22:12;41.38;;;8.57;;
71127;SDS011;59249;59.736;30.568;2024-01-30T18:24:41;42.30;;;10.50;;
71127;SDS011;59249;59.736;30.568;2024-01-30T18:27:16;55.87;;;10.53;;
71127;SDS011;59249;59.736;30.568;2024-01-30T18:29:49;86.00;;;12.43;;
71127;SDS011;59249;59.736;30.568;2024-01-30T18:32:22;68.45;;;12.20;;
71127;SDS011;59249;59.736;30.568;2024-01-30T18:34:51;46.67;;;10.63;;
71127;SDS011;59249;59.736;30.568;2024-01-30T18:37:31;44.88;;;10.35;;
71127;SDS011;59249;59.736;30.568;2024-01-30T18:40:07;46.77;;;9.70;;
71127;SDS011;59249;59.736;30.568;2024-01-30T18:42:39;49.10;;;9.05;;
71127;SDS011;59249;59.736;30.568;2024-01-30T18:45:10;31.30;;;10.10;;
71127;SDS011;59249;59.736;30.568;2024-01-30T18:47:44;32.03;;;10.20;;
71127;SDS011;59249;59.736;30.568;2024-01-30T18:50:15;32.05;;;11.18;;
71127;SDS011;59249;59.736;30.568;2024-01-30T18:52:44;40.90;;;11.53;;
71127;SDS011;59249;59.736;30.568;2024-01-30T18:55:23;50.55;;;11.57;;
71127;SDS011;59249;59.736;30.568;2024-01-30T18:58:02;44.22;;;11.27;;
71127;SDS011;59249;59.736;30.568;2024-01-30T19:00:35;44.50;;;11.07;;
71127;SDS011;59249;59.736;30.568;2024-01-30T19:03:06;73.30;;;14.18;;
71127;SDS011;59249;59.736;30.568;2024-01-30T19:05:36;54.87;;;13.33;;
71127;SDS011;59249;59.736;30.568;2024-01-30T19:08:06;86.57;;;13.82;;
71127;SDS011;59249;59.736;30.568;2024-01-30T19:10:36;53.92;;;12.88;;
71127;SDS011;59249;59.736;30.568;2024-01-30T19:13:11;73.78;;;14.38;;
71127;SDS011;59249;59.736;30.568;2024-01-30T19:15:44;72.32;;;13.05;;
71127;SDS011;59249;59.736;30.568;2024-01-30T19:18:17;67.43;;;13.13;;
71127;SDS011;59249;59.736;30.568;2024-01-30T19:20:46;76.07;;;10.90;;
71127;SDS011;59249;59.736;30.568;2024-01-30T19:23:21;75.82;;;13.15;;
71127;SDS011;59249;59.736;30.568;2024-01-30T19:25:58;40.53;;;9.05;;
71127;SDS011;59249;59.736;30.568;2024-01-30T19:28:33;39.60;;;7.80;;
71127;SDS011;59249;59.736;30.568;2024-01-30T19:31:04;56.10;;;10.03;;
71127;SDS011;59249;59.736;30.568;2024-01-30T19:33:35;28.65;;;8.10;;
71127;SDS011;59249;59.736;30.568;2024-01-30T19:36:06;50.42;;;9.77;;
71127;SDS011;59249;59.736;30.568;2024-01-30T19:38:41;53.75;;;9.10;;
71127;SDS011;59249;59.736;30.568;2024-01-30T19:41:10;36.25;;;8.90;;
71127;SDS011;59249;59.736;30.568;2024-01-30T19:43:44;26.83;;;6.80;;
71127;SDS011;59249;59.736;30.568;2024-01-30T19:46:14;28.92;;;7.07;;
71127;SDS011;59249;59.736;30.568;2024-01-30T19:48:43;26.88;;;6.15;;
71127;SDS011;59249;59.736;30.568;2024-01-30T19:51:12;47.00;;;8.77;;
71127;SDS011;59249;59.736;30.568;2024-01-30T19:53:42;43.38;;;8.13;;
71127;SDS011;59249;59.736;30.568;2024-01-30T19:56:12;49.07;;;7.43;;
71127;SDS011;59249;59.736;30.568;2024-01-30T19:58:43;27.20;;;6.50;;
71127;SDS011;59249;59.736;30.568;2024-01-30T20:01:21;28.13;;;6.07;;
71127;SDS011;59249;59.736;30.568;2024-01-30T20:03:52;22.75;;;6.40;;
71127;SDS011;59249;59.736;30.568;2024-01-30T20:06:24;17.60;;;5.68;;
71127;SDS011;59249;59.736;30.568;2024-01-30T20:08:53;21.33;;;5.80;;
71127;SDS011;59249;59.736;30.568;2024-01-30T20:11:24;23.83;;;5.65;;
71127;SDS011;59249;59.736;30.568;2024-01-30T20:13:58;33.95;;;6.68;;
71127;SDS011;59249;59.736;30.568;2024-01-30T20:16:35;40.95;;;6.45;;
71127;SDS011;59249;59.736;30.568;2024-01-30T20:19:05;32.30;;;6.57;;
71127;SDS011;59249;59.736;30.568;2024-01-30T20:21:36;50.27;;;7.57;;
71127;SDS011;59249;59.736;30.568;2024-01-30T20:24:09;54.75;;;15.45;;
71127;SDS011;59249;59.736;30.568;2024-01-30T20:26:43;70.97;;;11.40;;
71127;SDS011;59249;59.736;30.568;2024-01-30T20:29:14;99.57;;;14.18;;
71127;SDS011;59249;59.736;30.568;2024-01-30T20:31:46;92.43;;;15.48;;
71127;SDS011;59249;59.736;30.568;2024-01-30T20:34:23;77.27;;;14.83;;
71127;SDS011;59249;59.736;30.568;2024-01-30T20:36:53;122.43;;;17.90;;
71127;SDS011;59249;59.736;30.568;2024-01-30T20:39:28;104.15;;;14.43;;
71127;SDS011;59249;59.736;30.568;2024-01-30T20:41:59;213.85;;;23.67;;
71127;SDS011;59249;59.736;30.568;2024-01-30T20:44:30;84.10;;;13.13;;
71127;SDS011;59249;59.736;30.568;2024-01-30T20:46:59;158.93;;;19.13;;
71127;SDS011;59249;59.736;30.568;2024-01-30T20:49:29;71.18;;;12.57;;
71127;SDS011;59249;59.736;30.568;2024-01-30T20:52:00;107.63;;;18.20;;
71127;SDS011;59249;59.736;30.568;2024-01-30T20:54:30;69.15;;;13.05;;
71127;SDS011;59249;59.736;30.568;2024-01-30T20:57:01;145.50;;;17.90;;
71127;SDS011;59249;59.736;30.568;2024-01-30T20:59:34;148.33;;;17.30;;
71127;SDS011;59249;59.736;30.568;2024-01-30T21:02:07;138.18;;;17.25;;
71127;SDS011;59249;59.736;30.568;2024-01-30T21:04:37;118.22;;;16.00;;
71127;SDS011;59249;59.736;30.568;2024-01-30T21:07:08;122.63;;;16.17;;
71127;SDS011;59249;59.736;30.568;2024-01-30T21:09:38;125.75;;;17.80;;
71127;SDS011;59249;59.736;30.568;2024-01-30T21:12:08;82.20;;;13.97;;
71127;SDS011;59249;59.736;30.568;2024-01-30T21:14:40;52.40;;;11.57;;
71127;SDS011;59249;59.736;30.568;2024-01-30T21:17:10;79.22;;;14.40;;
71127;SDS011;59249;59.736;30.568;2024-01-30T21:19:39;65.03;;;13.02;;
71127;SDS011;59249;59.736;30.568;2024-01-30T21:22:08;46.17;;;12.70;;
71127;SDS011;59249;59.736;30.568;2024-01-30T21:24:37;32.00;;;9.13;;
71127;SDS011;59249;59.736;30.568;2024-01-30T21:27:08;43.05;;;11.45;;
71127;SDS011;59249;59.736;30.568;2024-01-30T21:29:38;37.20;;;10.65;;
71127;SDS011;59249;59.736;30.568;2024-01-30T21:32:10;34.05;;;10.95;;
71127;SDS011;59249;59.736;30.568;2024-01-30T21:34:41;54.10;;;10.18;;
71127;SDS011;59249;59.736;30.568;2024-01-30T21:37:11;26.60;;;6.63;;
71127;SDS011;59249;59.736;30.568;2024-01-30T21:39:49;126.10;;;17.65;;
71127;SDS011;59249;59.736;30.568;2024-01-30T21:42:24;104.13;;;14.77;;
71127;SDS011;59249;59.736;30.568;2024-01-30T21:44:58;96.63;;;14.25;;
71127;SDS011;59249;59.736;30.568;2024-01-30T21:47:30;104.75;;;14.73;;
71127;SDS011;59249;59.736;30.568;2024-01-30T21:50:01;126.37;;;15.30;;
71127;SDS011;59249;59.736;30.568;2024-01-30T21:52:30;156.23;;;19.42;;
71127;SDS011;59249;59.736;30.568;2024-01-30T21:55:01;93.07;;;11.45;;
71127;SDS011;59249;59.736;30.568;2024-01-30T21:57:36;76.20;;;13.10;;
71127;SDS011;59249;59.736;30.568;2024-01-30T22:00:22;47.90;;;7.95;;
71127;SDS011;59249;59.736;30.568;2024-01-30T22:02:51;102.43;;;12.33;;
71127;SDS011;59249;59.736;30.568;2024-01-30T22:05:23;107.65;;;13.85;;
71127;SDS011;59249;59.736;30.568;2024-01-30T22:07:52;38.13;;;7.90;;
71127;SDS011;59249;59.736;30.568;2024-01-30T22:10:21;62.42;;;10.13;;
71127;SDS011;59249;59.736;30.568;2024-01-30T22:12:50;81.78;;;10.82;;
71127;SDS011;59249;59.736;30.568;2024-01-30T22:15:19;64.53;;;11.17;;
71127;SDS011;59249;59.736;30.568;2024-01-30T22:17:51;31.48;;;6.63;;
71127;SDS011;59249;59.736;30.568;2024-01-30T22:20:23;31.30;;;7.53;;
71127;SDS011;59249;59.736;30.568;2024-01-30T22:22:54;30.70;;;6.82;;
71127;SDS011;59249;59.736;30.568;2024-01-30T22:25:28;21.05;;;6.00;;
71127;SDS011;59249;59.736;30.568;2024-01-30T22:28:03;25.23;;;7.53;;
71127;SDS011;59249;59.736;30.568;2024-01-30T22:30:40;21.55;;;6.18;;
71127;SDS011;59249;59.736;30.568;2024-01-30T22:33:17;33.38;;;7.45;;
71127;SDS011;59249;59.736;30.568;2024-01-30T22:35:53;28.08;;;7.20;;
71127;SDS011;59249;59.736;30.568;2024-01-30T22:38:36;50.47;;;9.43;;
71127;SDS011;59249;59.736;30.568;2024-01-30T22:41:08;24.13;;;6.23;;
71127;SDS011;59249;59.736;30.568;2024-01-30T22:43:39;27.30;;;6.97;;
71127;SDS011;59249;59.736;30.568;2024-01-30T22:46:20;24.45;;;6.45;;
71127;SDS011;59249;59.736;30.568;2024-01-30T22:48:51;31.60;;;7.32;;
71127;SDS011;59249;59.736;30.568;2024-01-30T22:51:26;22.58;;;7.35;;
71127;SDS011;59249;59.736;30.568;2024-01-30T22:54:04;17.47;;;6.17;;
71127;SDS011;59249;59.736;30.568;2024-01-30T22:56:36;29.38;;;7.78;;
71127;SDS011;59249;59.736;30.568;2024-01-30T22:59:05;28.15;;;7.50;;
71127;SDS011;59249;59.736;30.568;2024-01-30T23:01:34;26.33;;;7.10;;
71127;SDS011;59249;59.736;30.568;2024-01-30T23:04:07;23.58;;;7.55;;
71127;SDS011;59249;59.736;30.568;2024-01-30T23:06:40;29.10;;;8.10;;
71127;SDS011;59249;59.736;30.568;2024-01-30T23:09:19;23.45;;;7.35;;
71127;SDS011;59249;59.736;30.568;2024-01-30T23:11:48;25.90;;;8.30;;
71127;SDS011;59249;59.736;30.568;2024-01-30T23:14:17;24.90;;;7.03;;
71127;SDS011;59249;59.736;30.568;2024-01-30T23:16:47;24.38;;;7.20;;
71127;SDS011;59249;59.736;30.568;2024-01-30T23:19:18;23.60;;;7.00;;
71127;SDS011;59249;59.736;30.568;2024-01-30T23:21:47;23.95;;;8.02;;
71127;SDS011;59249;59.736;30.568;2024-01-30T23:24:19;23.67;;;7.97;;
71127;SDS011;59249;59.736;30.568;2024-01-30T23:26:51;22.70;;;7.53;;
71127;SDS011;59249;59.736;30.568;2024-01-30T23:29:26;23.30;;;6.50;;
71127;SDS011;59249;59.736;30.568;2024-01-30T23:31:59;17.37;;;6.70;;
71127;SDS011;59249;59.736;30.568;2024-01-30T23:34:52;17.60;;;6.35;;
71127;SDS011;59249;59.736;30.568;2024-01-30T23:37:22;18.20;;;6.00;;
71127;SDS011;59249;59.736;30.568;2024-01-30T23:39:51;19.30;;;6.60;;
71127;SDS011;59249;59.736;30.568;2024-01-30T23:42:20;17.02;;;5.90;;
71127;SDS011;59249;59.736;30.568;2024-01-30T23:44:49;17.77;;;6.17;;
71127;SDS011;59249;59.736;30.568;2024-01-30T23:47:20;16.92;;;5.07;;
71127;SDS011;59249;59.736;30.568;2024-01-30T23:50:06;16.05;;;5.00;;
71127;SDS011;59249;59.736;30.568;2024-01-30T23:52:40;13.57;;;5.50;;
71127;SDS011;59249;59.736;30.568;2024-01-30T23:55:10;13.85;;;5.00;;
71127;SDS011;59249;59.736;30.568;2024-01-30T23:57:40;19.73;;;6.73;;
